createdAt,value
2023-04-15T00:02:27.106Z,21.14
2023-04-15T00:05:12.356Z,21.02
2023-04-15T00:07:57.677Z,21.08
2023-04-15T00:10:43.191Z,21.10
2023-04-15T00:13:28.549Z,21.02
2023-04-15T00:16:13.623Z,21.08
2023-04-15T00:18:59.344Z,21.16
2023-04-15T00:21:44.835Z,21.09
2023-04-15T00:24:29.918Z,21.04
2023-04-15T00:27:15.144Z,20.99
2023-04-15T00:30:00.724Z,21.16
2023-04-15T00:32:46.154Z,21.26
2023-04-15T00:35:31.640Z,21.04
2023-04-15T00:38:17.010Z,21.09
2023-04-15T00:41:01.770Z,21.19
2023-04-15T00:43:47.326Z,21.11
2023-04-15T00:46:32.773Z,21.13
2023-04-15T00:49:17.713Z,21.12
2023-04-15T00:52:03.295Z,21.00
2023-04-15T00:54:48.601Z,21.08
2023-04-15T00:57:33.903Z,21.04
2023-04-15T01:00:19.168Z,21.10
2023-04-15T01:03:04.523Z,21.19
2023-04-15T01:05:49.833Z,21.08
2023-04-15T01:08:35.206Z,21.03
2023-04-15T01:11:20.301Z,21.01
2023-04-15T01:14:05.691Z,21.20
2023-04-15T01:16:51.053Z,21.18
2023-04-15T01:19:36.506Z,21.14
2023-04-15T01:22:21.747Z,21.04
2023-04-15T01:25:07.085Z,20.96
2023-04-15T01:27:52.364Z,21.08
2023-04-15T01:30:37.790Z,21.13
2023-04-15T01:33:22.681Z,21.10
2023-04-15T01:36:07.990Z,21.10
2023-04-15T01:38:53.184Z,21.03
2023-04-15T01:41:38.610Z,20.90
2023-04-15T01:44:23.924Z,20.92
2023-04-15T01:47:09.716Z,21.02
2023-04-15T01:49:54.676Z,20.92
2023-04-15T01:52:39.782Z,21.01
2023-04-15T01:55:24.752Z,20.97
2023-04-15T01:58:10.216Z,21.06
2023-04-15T02:00:55.429Z,21.11
2023-04-15T02:03:40.898Z,20.89
2023-04-15T02:06:26.165Z,21.02
2023-04-15T02:09:11.672Z,20.89
2023-04-15T02:11:56.642Z,20.81
2023-04-15T02:14:41.961Z,20.81
2023-04-15T02:17:27.502Z,20.94
2023-04-15T02:20:12.917Z,20.98
2023-04-15T02:22:58.400Z,20.88
2023-04-15T02:25:43.486Z,20.90
2023-04-15T02:28:39.125Z,21.03
2023-04-15T02:31:24.511Z,20.93
2023-04-15T02:34:09.705Z,20.90
2023-04-15T02:36:55.206Z,20.89
2023-04-15T02:39:40.724Z,20.92
2023-04-15T02:42:26.220Z,21.03
2023-04-15T02:45:11.268Z,20.90
2023-04-15T02:47:56.799Z,20.93
2023-04-15T02:50:42.221Z,20.85
2023-04-15T02:53:27.705Z,20.82
2023-04-15T02:56:13.175Z,20.82
2023-04-15T02:58:58.742Z,20.93
2023-04-15T03:01:43.887Z,20.85
2023-04-15T03:04:29.043Z,20.94
2023-04-15T03:07:14.520Z,20.84
2023-04-15T03:09:59.647Z,20.79
2023-04-15T03:12:45.045Z,20.86
2023-04-15T03:15:30.565Z,20.83
2023-04-15T03:18:15.868Z,20.90
2023-04-15T03:21:01.437Z,20.96
2023-04-15T03:23:49.191Z,20.83
2023-04-15T03:26:34.175Z,20.81
2023-04-15T03:29:19.103Z,20.94
2023-04-15T03:32:04.305Z,20.88
2023-04-15T03:34:49.905Z,20.89
2023-04-15T03:37:35.251Z,20.92
2023-04-15T03:40:20.498Z,20.84
2023-04-15T03:43:05.464Z,20.82
2023-04-15T03:45:50.716Z,20.81
2023-04-15T03:48:35.586Z,21.05
2023-04-15T03:51:20.611Z,20.94
2023-04-15T03:54:05.906Z,20.88
2023-04-15T03:56:51.257Z,20.92
2023-04-15T03:59:36.701Z,20.83
2023-04-15T04:02:22.267Z,20.95
2023-04-15T04:05:07.433Z,21.01
2023-04-15T04:07:52.278Z,21.06
2023-04-15T04:10:37.452Z,21.06
2023-04-15T04:13:22.662Z,21.01
2023-04-15T04:16:07.929Z,21.11
2023-04-15T04:18:53.214Z,20.97
2023-04-15T04:21:38.282Z,21.01
2023-04-15T04:24:23.570Z,21.04
2023-04-15T04:27:09.005Z,20.93
2023-04-15T04:29:54.190Z,20.86
2023-04-15T04:32:39.574Z,20.98
2023-04-15T04:35:24.813Z,21.00
2023-04-15T04:38:10.128Z,20.93
2023-04-15T04:40:55.623Z,20.91
2023-04-15T04:43:40.685Z,20.93
2023-04-15T04:46:26.245Z,21.00
2023-04-15T04:49:11.537Z,21.01
2023-04-15T04:51:56.924Z,20.98
2023-04-15T04:54:42.394Z,20.94
2023-04-15T04:57:27.641Z,20.94
2023-04-15T05:00:12.563Z,20.92
2023-04-15T05:02:57.965Z,21.01
2023-04-15T05:05:44.291Z,21.03
2023-04-15T05:08:29.520Z,20.98
2023-04-15T05:11:14.849Z,21.11
2023-04-15T05:14:00.308Z,21.12
2023-04-15T05:16:45.636Z,20.91
2023-04-15T05:19:31.058Z,21.04
2023-04-15T05:22:16.241Z,21.06
2023-04-15T05:25:01.721Z,21.11
2023-04-15T05:27:47.234Z,21.11
2023-04-15T05:30:32.610Z,21.08
2023-04-15T05:33:17.857Z,21.10
2023-04-15T05:36:03.093Z,21.08
2023-04-15T05:38:48.168Z,21.07
2023-04-15T05:41:33.436Z,21.09
2023-04-15T05:44:18.641Z,21.18
2023-04-15T05:47:03.958Z,21.21
2023-04-15T05:49:49.477Z,21.06
2023-04-15T05:52:34.828Z,21.03
2023-04-15T05:55:20.311Z,21.03
2023-04-15T05:58:05.757Z,21.05
2023-04-15T06:00:51.196Z,21.18
2023-04-15T06:03:36.674Z,21.12
2023-04-15T06:06:22.025Z,21.31
2023-04-15T06:09:07.290Z,21.30
2023-04-15T06:11:52.568Z,21.08
2023-04-15T06:14:38.119Z,21.08
2023-04-15T06:17:23.426Z,21.25
2023-04-15T06:20:08.751Z,21.17
2023-04-15T06:22:54.140Z,21.23
2023-04-15T06:25:39.437Z,21.23
2023-04-15T06:28:24.784Z,21.16
2023-04-15T06:31:09.967Z,21.31
2023-04-15T06:33:55.303Z,21.06
2023-04-15T06:36:40.488Z,21.25
2023-04-15T06:39:25.976Z,21.34
2023-04-15T06:42:11.159Z,21.16
2023-04-15T06:44:56.134Z,21.20
2023-04-15T06:47:41.462Z,21.19
2023-04-15T06:50:27.053Z,21.29
2023-04-15T06:53:12.498Z,21.25
2023-04-15T06:55:57.828Z,21.15
2023-04-15T06:58:43.216Z,21.27
2023-04-15T07:01:28.591Z,21.32
2023-04-15T07:04:13.996Z,21.23
2023-04-15T07:06:59.044Z,21.31
2023-04-15T07:09:44.520Z,21.26
2023-04-15T07:12:29.976Z,21.28
2023-04-15T07:15:15.233Z,21.29
2023-04-15T07:18:00.887Z,21.24
2023-04-15T07:20:46.035Z,21.36
2023-04-15T07:23:31.404Z,21.33
2023-04-15T07:26:16.916Z,21.30
2023-04-15T07:29:02.506Z,21.29
2023-04-15T07:31:47.671Z,21.35
2023-04-15T07:34:33.095Z,21.28
2023-04-15T07:37:18.545Z,21.30
2023-04-15T07:40:04.028Z,21.32
2023-04-15T07:42:49.337Z,21.26
2023-04-15T07:45:34.686Z,21.46
2023-04-15T07:48:19.983Z,21.31
2023-04-15T07:51:05.225Z,21.50
2023-04-15T07:53:50.544Z,21.52
2023-04-15T07:56:36.012Z,21.26
2023-04-15T07:59:21.546Z,21.13
2023-04-15T08:02:07.061Z,20.49
2023-04-15T08:04:52.322Z,20.97
2023-04-15T08:07:37.580Z,21.37
2023-04-15T08:10:23.003Z,21.36
2023-04-15T08:13:08.358Z,21.43
2023-04-15T08:15:53.600Z,21.51
2023-04-15T08:18:39.076Z,21.35
2023-04-15T08:21:24.391Z,21.56
2023-04-15T08:24:09.560Z,21.40
2023-04-15T08:26:54.919Z,21.42
2023-04-15T08:29:40.094Z,21.47
2023-04-15T08:32:25.908Z,21.55
2023-04-15T08:35:10.960Z,21.40
2023-04-15T08:37:56.289Z,21.44
2023-04-15T08:40:41.559Z,21.40
2023-04-15T08:43:26.758Z,21.45
2023-04-15T08:46:12.108Z,21.31
2023-04-15T08:48:57.388Z,21.17
2023-04-15T08:51:42.850Z,21.44
2023-04-15T08:54:28.128Z,21.30
2023-04-15T08:57:13.537Z,21.27
2023-04-15T08:59:58.751Z,21.33
2023-04-15T09:02:44.286Z,21.37
2023-04-15T09:05:29.372Z,21.40
2023-04-15T09:08:14.455Z,21.47
2023-04-15T09:11:00.010Z,21.46
2023-04-15T09:13:45.281Z,21.35
2023-04-15T09:16:30.586Z,21.43
2023-04-15T09:19:15.935Z,21.30
2023-04-15T09:22:01.246Z,21.35
2023-04-15T09:24:46.596Z,21.44
2023-04-15T09:27:31.874Z,21.39
2023-04-15T09:30:17.362Z,21.36
2023-04-15T09:33:02.675Z,21.52
2023-04-15T09:35:47.991Z,21.34
2023-04-15T09:38:33.555Z,21.53
2023-04-15T09:41:18.781Z,21.20
2023-04-15T09:44:04.036Z,21.48
2023-04-15T09:46:49.232Z,21.50
2023-04-15T09:49:34.691Z,21.40
2023-04-15T09:52:19.954Z,21.31
2023-04-15T09:55:05.328Z,21.42
2023-04-15T09:57:50.562Z,21.30
2023-04-15T10:00:35.912Z,21.40
2023-04-15T10:03:21.412Z,21.39
2023-04-15T10:06:06.583Z,21.25
2023-04-15T10:08:51.972Z,21.29
2023-04-15T10:11:37.226Z,21.50
2023-04-15T10:14:22.512Z,21.41
2023-04-15T10:17:08.004Z,21.18
2023-04-15T10:19:53.405Z,21.38
2023-04-15T10:22:38.755Z,21.50
2023-04-15T10:25:24.060Z,21.44
2023-04-15T10:28:09.532Z,21.34
2023-04-15T10:30:55.019Z,21.31
2023-04-15T10:33:40.234Z,21.45
2023-04-15T10:36:25.602Z,21.48
2023-04-15T10:39:10.843Z,21.46
2023-04-15T10:41:56.295Z,21.46
2023-04-15T10:44:41.683Z,21.51
2023-04-15T10:47:27.003Z,21.58
2023-04-15T10:50:12.355Z,21.57
2023-04-15T10:52:57.654Z,21.47
2023-04-15T10:55:43.159Z,21.35
2023-04-15T10:58:28.551Z,21.47
2023-04-15T11:01:13.814Z,21.57
2023-04-15T11:03:59.403Z,21.63
2023-04-15T11:06:44.549Z,21.52
2023-04-15T11:09:29.937Z,21.54
2023-04-15T11:12:15.334Z,21.54
2023-04-15T11:15:00.401Z,21.52
2023-04-15T11:17:46.619Z,21.63
2023-04-15T11:20:31.832Z,21.48
2023-04-15T11:23:18.089Z,21.51
2023-04-15T11:26:03.251Z,21.35
2023-04-15T11:28:48.766Z,21.54
2023-04-15T11:31:34.463Z,21.67
2023-04-15T11:34:19.693Z,21.79
2023-04-15T11:37:05.250Z,21.72
2023-04-15T11:39:51.066Z,21.87
2023-04-15T11:42:48.519Z,21.78
2023-04-15T11:45:34.628Z,21.82
2023-04-15T11:48:19.889Z,21.81
2023-04-15T11:51:05.696Z,21.64
2023-04-15T11:53:51.193Z,21.71
2023-04-15T11:56:36.789Z,21.84
2023-04-15T11:59:22.310Z,21.83
2023-04-15T12:02:08.347Z,21.69
2023-04-15T12:04:53.884Z,21.75
2023-04-15T12:07:39.407Z,21.75
2023-04-15T12:10:24.848Z,21.84
2023-04-15T12:13:10.557Z,21.71
2023-04-15T12:15:56.308Z,21.72
2023-04-15T12:18:42.023Z,21.82
2023-04-15T12:21:27.551Z,21.68
2023-04-15T12:24:12.774Z,21.78
2023-04-15T12:26:58.109Z,21.69
2023-04-15T12:29:43.536Z,21.55
2023-04-15T12:32:29.090Z,21.82
2023-04-15T12:35:14.461Z,21.72
2023-04-15T12:37:59.839Z,21.76
2023-04-15T12:40:46.096Z,21.65
2023-04-15T12:43:32.257Z,21.78
2023-04-15T12:46:18.135Z,21.82
2023-04-15T12:49:03.570Z,21.81
2023-04-15T12:51:49.449Z,21.79
2023-04-15T12:54:35.165Z,21.59
2023-04-15T12:57:20.622Z,21.81
2023-04-15T13:00:06.706Z,21.90
2023-04-15T13:02:52.245Z,21.83
2023-04-15T13:05:37.262Z,21.67
2023-04-15T13:08:22.666Z,21.83
2023-04-15T13:11:08.504Z,21.76
2023-04-15T13:13:53.377Z,21.73
2023-04-15T13:16:38.789Z,21.72
2023-04-15T13:19:24.518Z,21.72
2023-04-15T13:22:09.627Z,21.59
2023-04-15T13:24:55.186Z,21.70
2023-04-15T13:27:40.645Z,21.66
2023-04-15T13:30:25.965Z,21.57
2023-04-15T13:33:11.553Z,21.79
2023-04-15T13:35:57.259Z,21.73
2023-04-15T13:38:42.833Z,21.66
2023-04-15T13:41:28.344Z,21.71
2023-04-15T13:44:13.940Z,21.78
2023-04-15T13:46:59.326Z,21.63
2023-04-15T13:49:44.685Z,21.60
2023-04-15T13:52:30.338Z,21.71
2023-04-15T13:55:19.939Z,21.77
2023-04-15T13:58:06.661Z,21.72
2023-04-15T14:00:51.963Z,21.69
2023-04-15T14:03:38.470Z,21.69
2023-04-15T14:06:24.641Z,21.69
2023-04-15T14:09:10.468Z,21.70
2023-04-15T14:11:55.703Z,21.45
2023-04-15T14:14:41.547Z,21.64
2023-04-15T14:17:27.174Z,21.66
2023-04-15T14:20:13.239Z,21.65
2023-04-15T14:23:00.319Z,21.57
2023-04-15T14:25:47.917Z,21.51
2023-04-15T14:28:33.965Z,21.63
2023-04-15T14:31:19.377Z,21.52
2023-04-15T14:34:05.325Z,21.63
2023-04-15T14:36:51.048Z,21.55
2023-04-15T14:39:36.397Z,21.40
2023-04-15T14:42:21.772Z,21.66
2023-04-15T14:45:07.311Z,21.77
2023-04-15T14:47:52.685Z,21.67
2023-04-15T14:50:38.034Z,21.64
2023-04-15T14:53:23.450Z,21.66
2023-04-15T14:56:09.096Z,21.62
2023-04-15T14:58:54.471Z,21.62
2023-04-15T15:01:39.733Z,21.66
2023-04-15T15:04:25.290Z,21.74
2023-04-15T15:07:10.664Z,21.69
2023-04-15T15:09:56.071Z,21.49
2023-04-15T15:12:41.377Z,21.44
2023-04-15T15:15:29.075Z,21.54
2023-04-15T15:18:14.645Z,21.57
2023-04-15T15:21:00.058Z,21.56
2023-04-15T15:23:45.517Z,21.70
2023-04-15T15:26:31.378Z,21.60
2023-04-15T15:29:16.841Z,21.67
2023-04-15T15:32:02.144Z,21.66
2023-04-15T15:34:47.786Z,21.72
2023-04-15T15:37:32.712Z,21.70
2023-04-15T15:40:19.635Z,21.78
2023-04-15T15:43:05.155Z,21.67
2023-04-15T15:45:50.429Z,21.62
2023-04-15T15:48:35.668Z,21.64
2023-04-15T15:51:21.116Z,21.69
2023-04-15T15:54:06.543Z,21.63
2023-04-15T15:56:52.012Z,21.81
2023-04-15T15:59:37.504Z,21.59
2023-04-15T16:02:40.064Z,21.64
2023-04-15T16:05:28.313Z,21.58
2023-04-15T16:08:13.927Z,21.55
2023-04-15T16:10:59.013Z,21.61
2023-04-15T16:13:44.585Z,21.71
2023-04-15T16:16:30.201Z,21.70
2023-04-15T16:19:16.532Z,21.64
2023-04-15T16:22:02.179Z,21.62
2023-04-15T16:24:47.478Z,21.58
2023-04-15T16:27:33.812Z,21.65
2023-04-15T16:30:22.078Z,21.69
2023-04-15T16:33:09.375Z,21.55
2023-04-15T16:35:54.613Z,21.54
2023-04-15T16:38:40.151Z,21.55
2023-04-15T16:41:25.463Z,21.47
2023-04-15T16:44:10.719Z,21.65
2023-04-15T16:46:56.147Z,21.56
2023-04-15T16:49:41.462Z,21.53
2023-04-15T16:52:26.874Z,21.41
2023-04-15T16:55:12.167Z,21.20
2023-04-15T16:58:01.642Z,21.14
2023-04-15T17:00:47.969Z,21.12
2023-04-15T17:03:34.019Z,21.11
2023-04-15T17:06:19.584Z,21.16
2023-04-15T17:09:05.583Z,21.10
2023-04-15T17:11:51.046Z,21.11
2023-04-15T17:14:36.623Z,21.19
2023-04-15T17:17:22.081Z,21.17
2023-04-15T17:20:07.176Z,21.19
2023-04-15T17:22:53.200Z,21.11
2023-04-15T17:25:38.414Z,21.21
2023-04-15T17:28:23.797Z,21.26
2023-04-15T17:31:09.162Z,21.18
2023-04-15T17:34:01.772Z,21.23
2023-04-15T17:36:55.626Z,21.24
2023-04-15T17:39:40.689Z,21.17
2023-04-15T17:42:26.025Z,21.26
2023-04-15T17:45:11.447Z,21.17
2023-04-15T17:47:56.875Z,21.15
2023-04-15T17:50:43.578Z,21.19
2023-04-15T17:53:28.661Z,21.33
2023-04-15T17:56:14.088Z,21.20
2023-04-15T17:58:59.361Z,21.24
2023-04-15T18:01:44.973Z,21.25
2023-04-15T18:04:32.357Z,21.24
2023-04-15T18:07:18.167Z,21.19
2023-04-15T18:10:04.297Z,21.21
2023-04-15T18:12:49.778Z,21.21
2023-04-15T18:15:35.388Z,21.17
2023-04-15T18:18:21.031Z,21.28
2023-04-15T18:21:07.131Z,21.26
2023-04-15T18:23:53.918Z,21.31
2023-04-15T18:26:39.043Z,21.37
2023-04-15T18:29:24.331Z,21.29
2023-04-15T18:32:09.759Z,21.26
2023-04-15T18:34:55.065Z,21.24
2023-04-15T18:37:40.374Z,21.18
2023-04-15T18:40:25.981Z,21.24
2023-04-15T18:43:11.607Z,21.27
2023-04-15T18:45:57.416Z,21.29
2023-04-15T18:48:42.483Z,21.40
2023-04-15T18:51:27.877Z,21.52
2023-04-15T18:54:12.993Z,21.37
2023-04-15T18:56:58.274Z,21.53
2023-04-15T18:59:43.812Z,21.66
2023-04-15T19:02:29.314Z,21.67
2023-04-15T19:05:15.009Z,21.62
2023-04-15T19:08:00.131Z,21.71
2023-04-15T19:10:45.284Z,21.56
2023-04-15T19:13:30.793Z,21.72
2023-04-15T19:16:16.132Z,21.66
2023-04-15T19:19:01.599Z,21.44
2023-04-15T19:21:46.564Z,21.40
2023-04-15T19:24:33.168Z,21.20
2023-04-15T19:27:18.335Z,21.12
2023-04-15T19:30:03.621Z,21.16
2023-04-15T19:32:49.451Z,21.31
2023-04-15T19:35:34.652Z,21.29
2023-04-15T19:38:21.636Z,21.56
2023-04-15T19:41:08.165Z,21.64
2023-04-15T19:43:56.314Z,21.61
2023-04-15T19:46:41.905Z,21.63
2023-04-15T19:49:27.298Z,21.66
2023-04-15T19:52:12.768Z,21.60
2023-04-15T19:54:58.153Z,21.61
2023-04-15T19:57:43.492Z,21.67
2023-04-15T20:00:28.733Z,21.61
2023-04-15T20:03:13.935Z,21.64
2023-04-15T20:05:59.232Z,21.58
2023-04-15T20:08:44.672Z,21.63
2023-04-15T20:12:47.477Z,21.51
2023-04-15T20:14:34.949Z,21.38
2023-04-15T20:17:20.169Z,21.40
2023-04-15T20:20:05.268Z,21.47
2023-04-15T20:22:50.513Z,21.36
2023-04-15T20:25:35.987Z,21.34
2023-04-15T20:28:21.256Z,21.34
2023-04-15T20:31:06.633Z,21.20
2023-04-15T20:33:51.624Z,21.38
2023-04-15T20:36:36.699Z,21.47
2023-04-15T20:39:22.029Z,21.33
2023-04-15T20:42:07.101Z,21.24
2023-04-15T20:44:52.594Z,21.36
2023-04-15T20:47:37.954Z,21.46
2023-04-15T20:50:23.388Z,21.48
2023-04-15T20:53:08.569Z,21.51
2023-04-15T20:55:53.841Z,21.57
2023-04-15T20:58:39.057Z,21.69
2023-04-15T21:01:24.394Z,21.57
2023-04-15T21:04:09.654Z,21.52
2023-04-15T21:06:54.811Z,21.61
2023-04-15T21:09:39.867Z,21.62
2023-04-15T21:12:25.178Z,21.74
2023-04-15T21:15:10.701Z,21.67
2023-04-15T21:17:55.966Z,21.69
2023-04-15T21:20:41.450Z,21.72
2023-04-15T21:23:26.877Z,21.76
2023-04-15T21:26:12.142Z,21.76
2023-04-15T21:28:57.605Z,21.57
2023-04-15T21:31:43.084Z,21.67
2023-04-15T21:34:31.375Z,21.48
2023-04-15T21:37:16.632Z,21.50
2023-04-15T21:40:01.949Z,21.53
2023-04-15T21:42:47.050Z,21.72
2023-04-15T21:45:32.309Z,21.59
2023-04-15T21:48:17.620Z,21.67
2023-04-15T21:51:03.018Z,21.73
2023-04-15T21:53:48.138Z,21.59
2023-04-15T21:56:33.331Z,21.61
2023-04-15T21:59:18.750Z,21.55
2023-04-15T22:02:04.035Z,21.66
2023-04-15T22:04:49.154Z,21.54
2023-04-15T22:07:34.267Z,21.58
2023-04-15T22:10:19.875Z,21.73
2023-04-15T22:13:05.095Z,21.61
2023-04-15T22:15:50.454Z,21.66
2023-04-15T22:18:35.870Z,21.60
2023-04-15T22:21:21.279Z,21.56
2023-04-15T22:24:38.155Z,21.67
2023-04-15T22:27:11.551Z,21.63
2023-04-15T22:29:56.771Z,21.67
2023-04-15T22:32:42.129Z,21.62
2023-04-15T22:35:27.439Z,21.60
2023-04-15T22:38:12.464Z,21.67
2023-04-15T22:40:57.780Z,21.67
2023-04-15T22:43:43.207Z,21.52
2023-04-15T22:46:28.577Z,21.64
2023-04-15T22:49:13.968Z,21.52
2023-04-15T22:51:59.429Z,21.59
2023-04-15T22:54:44.693Z,21.54
2023-04-15T22:57:30.097Z,21.61
2023-04-15T23:00:15.452Z,21.58
2023-04-15T23:03:01.258Z,21.72
2023-04-15T23:05:46.400Z,21.75
2023-04-15T23:08:31.760Z,21.63
2023-04-15T23:11:17.366Z,21.64
2023-04-15T23:14:03.878Z,21.59
2023-04-15T23:16:48.952Z,21.59
2023-04-15T23:19:34.369Z,21.59
2023-04-15T23:22:19.675Z,21.54
2023-04-15T23:25:05.007Z,21.64
2023-04-15T23:27:50.234Z,21.62
2023-04-15T23:30:35.845Z,21.62
2023-04-15T23:33:21.248Z,21.58
2023-04-15T23:36:06.504Z,21.55
2023-04-15T23:38:51.928Z,21.54
2023-04-15T23:41:37.433Z,21.52
2023-04-15T23:44:22.931Z,21.42
2023-04-15T23:47:08.404Z,21.45
2023-04-15T23:49:53.669Z,21.46
2023-04-15T23:52:39.111Z,21.66
2023-04-15T23:55:24.199Z,21.63
2023-04-15T23:58:09.605Z,21.44
